Hlavní strana
METAR-TAF:

METAR-TAF

Letiště :

Grafenwöhr, Německo

zeměpisná šířka: 49-42N, zeměpisná délka: 011-57E, výška: 415 m

Aktuální stav počasí

Zpráva byla vytvořena před 1 hodinou a 9 minutami, v 14:56 UTC
Východoseverovýchodní vítr 6 kt
Teplota 7°C
Vlhkost vzduchu 66%
Tlak 1029 hPa
Viditelnost 10 km a více
Jasno

METAR: ETIC 161456Z AUTO 07006KT 9999 CLR 07/01 A3039 RMK AO2 SLP313 T00670014 56006 CHINO RWY32 $

Čas: 17:05 (16:05 UTC)

Předpověď počasí

Zpráva byla vytvořena před 4 hodinami a 5 minutami, v 12:00 UTC
Předpověď platná od 16 v 12 UTC do 17 v 18 UTC
Východní vítr 9 kt
Viditelnost 10 km a více
Jasno
Změna
od 17 v 01 UTC do 17 v 02 UTC
Východní vítr 6 kt
Viditelnost: 6000 m
Jasno
kouřmo
Změna
od 17 v 07 UTC do 17 v 08 UTC
Východní vítr 9 kt
Viditelnost 10 km a více
Jasno

TAF: ETIC 161200Z 1612/1718 09009KT 9999 SKC QNH3038INS BECMG 1701/1702 09006KT 6000 BR SKC QNH3040INS BECMG 1707/1708 09009KT 9999 NSW SKC QNH3037INS TX10/1614Z TNM03/1706Z

Stav a předpovědi počasí z více než 4 000 letišť (zprávy METAR a TAF).

Červené a žluté tečky na mapě představují dostupné meteorologické stanice.

Když kurzor umístíte na tečku, zobrazí se název stanice.

Pak kliknutím zobrazíte stav a předpověď počasí.

Chcete-li změnit mapu, kliknutím na zelené tlačítko se znaménkem +mapu přiblížíte, kliknutím na zelené tlačítko se znaménkem – mapu oddálíte a kliknutím na zelené šipky přejdete na sousední mapy.


METAR-TAF: